Time;durP1;ratioP1;P1;durP2;ratioP2;P2;SDS_P1;SDS_P2;PMS_P1;PMS_P2;Temp;Humidity;BMP_temperature;BMP_pressure;BME280_temperature;BME280_humidity;BME280_pressure;Samples;Min_cycle;Max_cycle;Signal;HPM_P1;HPM_P2
2022/03/23 00:01:41;;;;;;;42.47;28.27;;;10.80;99.90;;;;;;4997989;28;20038;-70
2022/03/23 00:04:06;;;;;;;48.45;30.48;;;10.80;99.90;;;;;;5016585;28;20077;-70
2022/03/23 00:06:33;;;;;;;47.90;29.30;;;10.70;99.90;;;;;;5016519;28;20382;-70
2022/03/23 00:09:00;;;;;;;50.47;29.27;;;10.70;99.90;;;;;;5016366;28;20049;-69
2022/03/23 00:11:26;;;;;;;50.55;31.75;;;10.70;99.90;;;;;;5015288;28;20357;-70
2022/03/23 00:13:52;;;;;;;49.60;30.35;;;10.60;99.90;;;;;;5016665;28;20045;-70
2022/03/23 00:16:17;;;;;;;46.78;30.10;;;10.60;99.90;;;;;;5035392;28;20172;-69
2022/03/23 00:18:43;;;;;;;45.67;30.25;;;10.60;99.90;;;;;;5035942;28;20100;-69
2022/03/23 00:21:08;;;;;;;44.17;29.08;;;10.50;99.90;;;;;;5035602;28;20112;-70
2022/03/23 00:23:34;;;;;;;45.20;29.27;;;10.40;99.90;;;;;;5016634;28;20363;-69
2022/03/23 00:26:00;;;;;;;46.67;30.92;;;10.40;99.90;;;;;;5015969;28;20049;-71
2022/03/23 00:28:29;;;;;;;41.35;27.80;;;10.40;99.90;;;;;;5015989;28;20526;-70
2022/03/23 00:30:55;;;;;;;44.83;27.38;;;10.30;99.90;;;;;;5015391;28;20038;-69
2022/03/23 00:33:21;;;;;;;44.50;27.75;;;10.40;99.90;;;;;;5015092;28;20122;-70
2022/03/23 00:35:48;;;;;;;39.92;26.00;;;10.30;99.90;;;;;;5015310;28;20374;-69
2022/03/23 00:38:15;;;;;;;37.13;25.73;;;10.30;99.90;;;;;;5015740;28;20038;-71
2022/03/23 00:40:41;;;;;;;42.30;27.55;;;10.40;99.90;;;;;;5015329;28;20030;-70
2022/03/23 00:43:07;;;;;;;42.53;28.15;;;10.40;99.90;;;;;;5015352;28;20394;-70
2022/03/23 00:45:33;;;;;;;40.42;25.73;;;10.30;99.90;;;;;;5015679;28;20056;-69
2022/03/23 00:47:58;;;;;;;38.85;25.85;;;10.30;99.90;;;;;;5015599;28;20037;-70
2022/03/23 00:50:26;;;;;;;40.13;27.75;;;10.30;99.90;;;;;;5015111;28;20042;-70
2022/03/23 00:52:51;;;;;;;39.70;26.35;;;10.30;99.90;;;;;;5015228;28;20073;-70
2022/03/23 00:55:18;;;;;;;41.42;26.42;;;10.20;99.90;;;;;;5015326;28;20077;-71
2022/03/23 00:57:44;;;;;;;39.20;26.23;;;10.20;99.90;;;;;;5015543;28;20042;-70
2022/03/23 01:00:17;;;;;;;40.10;26.42;;;10.10;99.90;;;;;;5015196;28;20038;-69
2022/03/23 01:02:44;;;;;;;43.08;26.98;;;10.20;99.90;;;;;;5014918;28;20122;-70
2022/03/23 01:05:11;;;;;;;38.63;25.55;;;10.10;99.90;;;;;;5015516;28;20450;-70
2022/03/23 01:07:38;;;;;;;39.03;26.02;;;10.10;99.90;;;;;;5014841;28;20363;-69
2022/03/23 01:10:05;;;;;;;35.95;26.05;;;10.20;99.90;;;;;;5014328;28;20129;-69
2022/03/23 01:12:31;;;;;;;35.92;25.40;;;10.10;99.90;;;;;;5002048;28;20129;-72
2022/03/23 01:14:58;;;;;;;39.15;26.50;;;10.10;99.90;;;;;;4995347;28;20134;-70
2022/03/23 01:17:24;;;;;;;39.97;24.23;;;10.10;99.90;;;;;;4995245;28;20053;-70
2022/03/23 01:19:50;;;;;;;36.20;25.70;;;10.10;99.90;;;;;;4977766;28;20043;-70
2022/03/23 01:22:17;;;;;;;39.17;26.48;;;10.00;99.90;;;;;;5001721;28;20037;-70
2022/03/23 01:24:44;;;;;;;39.05;25.23;;;10.00;99.90;;;;;;5015006;28;20053;-70
2022/03/23 01:27:10;;;;;;;37.97;26.20;;;10.00;99.90;;;;;;5015205;28;20046;-69
2022/03/23 01:29:36;;;;;;;40.60;27.30;;;9.90;99.90;;;;;;5014828;28;20048;-70
2022/03/23 01:32:01;;;;;;;39.90;26.60;;;9.90;99.90;;;;;;5013614;28;20069;-70
2022/03/23 01:34:27;;;;;;;36.65;25.80;;;9.80;99.90;;;;;;5014667;28;20124;-71
2022/03/23 01:36:53;;;;;;;37.25;26.15;;;9.80;99.90;;;;;;5014655;28;20046;-69
2022/03/23 01:39:19;;;;;;;36.33;26.27;;;9.80;99.90;;;;;;5014700;28;20049;-70
2022/03/23 01:41:45;;;;;;;37.28;25.15;;;9.80;99.90;;;;;;4996874;28;20359;-72
2022/03/23 01:44:24;;;;;;;37.97;26.15;;;9.80;99.90;;;;;;5014829;28;20053;-70
2022/03/23 01:47:10;;;;;;;43.70;26.02;;;9.70;99.90;;;;;;5014475;28;20041;-69
2022/03/23 01:49:39;;;;;;;39.05;27.67;;;9.60;99.90;;;;;;5014425;28;20045;-70
2022/03/23 01:52:06;;;;;;;38.08;26.85;;;9.60;99.90;;;;;;5013680;28;20474;-70
2022/03/23 01:54:33;;;;;;;44.85;28.27;;;9.50;99.90;;;;;;5014160;28;20046;-69
2022/03/23 01:57:00;;;;;;;47.95;28.77;;;9.40;99.90;;;;;;5014587;28;20038;-69
2022/03/23 01:59:27;;;;;;;43.38;28.75;;;9.40;99.90;;;;;;5014314;28;20038;-69
2022/03/23 02:01:54;;;;;;;44.45;29.25;;;9.30;99.90;;;;;;5013342;28;20116;-70
2022/03/23 02:04:19;;;;;;;46.92;29.15;;;9.30;99.90;;;;;;5014363;28;20105;-70
2022/03/23 02:06:48;;;;;;;46.60;28.95;;;9.30;99.90;;;;;;5014399;28;20030;-70
2022/03/23 02:09:16;;;;;;;46.40;29.80;;;9.30;99.90;;;;;;4996751;28;20038;-71
2022/03/23 02:11:42;;;;;;;54.47;31.10;;;9.40;99.90;;;;;;5013303;28;20046;-70
2022/03/23 02:14:09;;;;;;;43.00;29.63;;;9.30;99.90;;;;;;5014228;28;20049;-70
2022/03/23 02:16:42;;;;;;;42.75;29.55;;;9.30;99.90;;;;;;5013707;28;20054;-70
2022/03/23 02:19:08;;;;;;;47.90;30.27;;;9.30;99.90;;;;;;5016572;28;20034;-71
2022/03/23 02:21:34;;;;;;;52.65;33.50;;;9.20;99.90;;;;;;5017522;28;20111;-70
2022/03/23 02:24:02;;;;;;;64.65;38.00;;;9.20;99.90;;;;;;5017808;28;20455;-70
2022/03/23 02:26:28;;;;;;;56.70;34.67;;;9.10;99.90;;;;;;5018278;28;20037;-71
2022/03/23 02:28:55;;;;;;;57.22;35.85;;;9.00;99.90;;;;;;5018289;28;20053;-69
2022/03/23 02:31:21;;;;;;;57.13;34.08;;;9.00;99.90;;;;;;5017579;28;20095;-69
2022/03/23 02:33:46;;;;;;;58.88;34.53;;;9.00;99.90;;;;;;5017316;28;20118;-69
2022/03/23 02:36:12;;;;;;;52.92;33.00;;;9.00;99.90;;;;;;5017573;28;20053;-69
2022/03/23 02:38:37;;;;;;;55.17;35.58;;;9.00;99.90;;;;;;5018477;28;20030;-69
2022/03/23 02:41:03;;;;;;;56.88;35.10;;;9.00;99.90;;;;;;5017325;28;20433;-70
2022/03/23 02:43:29;;;;;;;60.63;35.38;;;9.00;99.90;;;;;;5017546;28;20406;-70
2022/03/23 02:45:55;;;;;;;47.30;32.85;;;9.00;99.90;;;;;;5017744;28;20470;-70
2022/03/23 02:48:21;;;;;;;43.97;29.67;;;9.00;99.90;;;;;;5017605;28;20141;-70
2022/03/23 02:50:46;;;;;;;48.22;30.92;;;9.00;99.90;;;;;;5017173;28;20037;-70
2022/03/23 03:02:00;;;;;;;41.53;27.65;;;9.00;99.90;;;;;;5016791;28;20074;-69
2022/03/23 03:04:26;;;;;;;44.00;29.02;;;8.90;99.90;;;;;;4997801;28;20038;-69
2022/03/23 03:06:51;;;;;;;42.78;28.35;;;8.80;99.90;;;;;;4997638;28;20379;-70
2022/03/23 03:09:19;;;;;;;43.28;29.80;;;8.80;99.90;;;;;;4997610;28;20053;-69
2022/03/23 03:11:45;;;;;;;42.55;28.20;;;8.80;99.90;;;;;;4998861;28;20046;-70
2022/03/23 03:14:12;;;;;;;48.65;30.15;;;8.80;99.90;;;;;;5017579;28;20056;-69
2022/03/23 03:16:37;;;;;;;43.97;29.65;;;8.70;99.90;;;;;;4999694;28;20093;-70
2022/03/23 03:19:10;;;;;;;44.00;29.60;;;8.70;99.90;;;;;;5017201;28;20147;-69
2022/03/23 03:21:36;;;;;;;43.63;28.83;;;8.60;99.90;;;;;;5016754;28;20038;-69
2022/03/23 03:24:02;;;;;;;42.40;29.20;;;8.60;99.90;;;;;;5016922;28;20041;-70
2022/03/23 03:26:30;;;;;;;47.45;29.85;;;8.60;99.90;;;;;;5017203;28;20048;-70
2022/03/23 03:28:57;;;;;;;45.70;30.83;;;8.60;99.90;;;;;;5016586;28;20056;-69
2022/03/23 03:31:23;;;;;;;46.75;30.80;;;8.60;99.90;;;;;;5016315;28;20112;-69
2022/03/23 03:33:49;;;;;;;43.08;28.30;;;8.60;99.90;;;;;;5016467;28;20133;-71
2022/03/23 03:36:15;;;;;;;41.33;28.00;;;8.60;99.90;;;;;;4999570;28;20125;-69
2022/03/23 03:38:42;;;;;;;44.42;30.40;;;8.60;99.90;;;;;;5017204;28;20049;-70
2022/03/23 03:41:08;;;;;;;47.78;31.02;;;8.70;99.90;;;;;;5016973;28;20046;-69
2022/03/23 03:43:33;;;;;;;47.65;31.48;;;8.60;99.90;;;;;;5016174;28;20462;-69
2022/03/23 03:46:00;;;;;;;46.97;31.38;;;8.70;99.90;;;;;;5016434;28;20053;-70
2022/03/23 03:48:26;;;;;;;47.13;31.10;;;8.70;99.90;;;;;;5016593;28;20041;-69
2022/03/23 03:50:51;;;;;;;47.70;31.42;;;8.70;99.90;;;;;;5016608;28;20125;-70
2022/03/23 03:53:17;;;;;;;49.50;31.38;;;8.60;99.90;;;;;;5016484;28;20077;-69
2022/03/23 03:55:43;;;;;;;51.53;31.25;;;8.60;99.90;;;;;;5016651;28;20046;-70
2022/03/23 03:58:09;;;;;;;44.92;29.70;;;8.50;99.90;;;;;;5016376;28;20170;-70
2022/03/23 04:00:36;;;;;;;43.13;28.80;;;8.40;99.90;;;;;;5015898;28;20034;-69
2022/03/23 04:03:03;;;;;;;43.45;29.65;;;8.40;99.90;;;;;;5015925;28;20129;-69
2022/03/23 04:05:29;;;;;;;41.58;29.65;;;8.40;99.90;;;;;;5016644;28;20061;-70
2022/03/23 04:07:58;;;;;;;43.05;30.33;;;8.30;99.90;;;;;;4999321;28;20042;-69
2022/03/23 04:10:25;;;;;;;44.25;30.10;;;8.40;99.90;;;;;;5015912;28;20096;-69
2022/03/23 04:12:50;;;;;;;45.33;30.48;;;8.30;99.90;;;;;;5015580;28;20081;-70
2022/03/23 04:15:16;;;;;;;46.38;31.05;;;8.30;99.90;;;;;;5016154;28;20085;-69
2022/03/23 04:17:42;;;;;;;45.47;31.65;;;8.30;99.90;;;;;;5015790;28;20148;-69
2022/03/23 04:20:09;;;;;;;43.55;29.95;;;8.20;99.90;;;;;;5015895;28;20034;-69
2022/03/23 04:22:35;;;;;;;49.55;32.38;;;8.20;99.90;;;;;;5015513;28;20045;-70
2022/03/23 04:25:01;;;;;;;49.53;30.45;;;8.20;99.90;;;;;;4998649;28;20078;-70
2022/03/23 04:27:27;;;;;;;45.70;30.65;;;8.20;99.90;;;;;;5016139;28;20038;-70
2022/03/23 04:29:53;;;;;;;51.13;32.13;;;8.20;99.90;;;;;;5015665;28;20060;-69
2022/03/23 04:32:19;;;;;;;56.40;31.50;;;8.20;99.90;;;;;;5015349;28;20051;-69
2022/03/23 04:34:44;;;;;;;54.67;33.92;;;8.20;99.90;;;;;;5015557;28;20494;-70
2022/03/23 04:37:10;;;;;;;55.55;35.10;;;8.10;99.90;;;;;;5016038;28;20033;-71
2022/03/23 04:39:36;;;;;;;50.05;33.38;;;8.10;99.90;;;;;;5016100;28;20045;-69
2022/03/23 04:42:02;;;;;;;55.25;34.88;;;8.10;99.90;;;;;;5014189;28;20045;-70
2022/03/23 04:44:27;;;;;;;54.88;34.92;;;8.10;99.90;;;;;;5015935;28;20030;-69
2022/03/23 04:46:53;;;;;;;54.13;35.92;;;8.00;99.90;;;;;;5015572;28;20435;-69
2022/03/23 04:49:19;;;;;;;54.38;35.28;;;8.00;99.90;;;;;;5015234;28;20041;-69
2022/03/23 04:51:44;;;;;;;54.65;34.90;;;8.00;99.90;;;;;;5001097;28;20516;-70
2022/03/23 04:54:10;;;;;;;54.03;35.25;;;8.00;99.90;;;;;;4997225;28;20080;-71
2022/03/23 04:56:35;;;;;;;55.22;34.58;;;8.00;99.90;;;;;;5010335;28;20048;-69
2022/03/23 04:59:01;;;;;;;60.42;37.63;;;8.00;99.90;;;;;;5009690;28;20742;-70
2022/03/23 05:01:27;;;;;;;57.72;37.05;;;7.90;99.90;;;;;;5002870;28;20113;-69
2022/03/23 05:03:52;;;;;;;70.43;39.85;;;7.90;99.90;;;;;;5000060;28;20030;-69
2022/03/23 05:06:19;;;;;;;65.10;38.88;;;7.80;99.90;;;;;;4994971;28;20462;-69
2022/03/23 05:08:45;;;;;;;64.68;38.55;;;7.80;99.90;;;;;;5002729;28;20455;-69
2022/03/23 05:11:10;;;;;;;61.10;37.70;;;7.70;99.90;;;;;;5001469;28;20080;-71
2022/03/23 05:13:36;;;;;;;64.35;38.22;;;7.70;99.90;;;;;;5002402;28;20419;-69
2022/03/23 05:16:03;;;;;;;60.25;38.28;;;7.70;99.90;;;;;;5012355;28;20054;-69
2022/03/23 05:18:29;;;;;;;62.38;37.25;;;7.80;99.90;;;;;;4996466;28;20034;-72
2022/03/23 05:20:55;;;;;;;64.43;40.40;;;7.70;99.90;;;;;;4997886;28;20178;-69
2022/03/23 05:23:21;;;;;;;61.58;37.95;;;7.70;99.90;;;;;;4992575;28;20041;-72
2022/03/23 05:25:46;;;;;;;57.92;35.42;;;7.70;99.90;;;;;;4994038;28;20038;-69
2022/03/23 05:28:13;;;;;;;57.40;36.30;;;7.70;99.90;;;;;;4995274;28;20078;-69
2022/03/23 05:30:39;;;;;;;54.95;34.05;;;7.70;99.90;;;;;;4995166;28;20061;-68
2022/03/23 05:33:04;;;;;;;48.05;31.52;;;7.60;99.90;;;;;;4989147;28;20038;-69
2022/03/23 05:35:30;;;;;;;53.20;33.75;;;7.70;99.90;;;;;;4977361;28;20113;-69
2022/03/23 05:37:56;;;;;;;57.95;34.28;;;7.70;99.90;;;;;;4996871;28;20471;-69
2022/03/23 05:40:23;;;;;;;54.80;33.78;;;7.70;99.90;;;;;;4992851;28;20042;-69
2022/03/23 05:42:50;;;;;;;53.65;34.20;;;7.60;99.90;;;;;;5006671;28;20052;-69
2022/03/23 05:45:16;;;;;;;52.20;33.58;;;7.60;99.90;;;;;;5013968;28;20046;-70
2022/03/23 05:47:42;;;;;;;52.97;33.38;;;7.60;99.90;;;;;;5014433;28;20150;-70
2022/03/23 05:50:09;;;;;;;50.47;33.60;;;7.70;99.90;;;;;;5014260;28;20056;-68
2022/03/23 05:52:36;;;;;;;52.38;33.80;;;7.60;99.90;;;;;;5013667;28;20037;-69
2022/03/23 05:55:02;;;;;;;54.60;36.67;;;7.70;99.90;;;;;;5014176;28;20057;-70
2022/03/23 05:57:29;;;;;;;65.28;40.00;;;7.70;99.90;;;;;;4995733;28;20038;-69
2022/03/23 05:59:55;;;;;;;62.95;39.58;;;7.70;99.90;;;;;;4994771;28;20038;-68
2022/03/23 06:02:21;;;;;;;62.72;40.15;;;7.70;99.90;;;;;;4997077;28;20048;-68
2022/03/23 06:04:46;;;;;;;72.13;41.05;;;7.70;99.90;;;;;;4993198;28;20034;-68
2022/03/23 06:07:12;;;;;;;71.85;44.47;;;7.70;99.90;;;;;;4994291;28;20452;-70
2022/03/23 06:09:38;;;;;;;71.25;41.95;;;7.70;99.90;;;;;;4994610;28;20062;-70
2022/03/23 06:12:05;;;;;;;63.22;39.83;;;7.90;99.90;;;;;;5009981;28;20081;-69
2022/03/23 06:14:32;;;;;;;62.63;38.30;;;7.80;99.90;;;;;;5012601;28;20226;-68
2022/03/23 06:16:58;;;;;;;61.67;39.03;;;7.90;99.90;;;;;;5013600;28;20034;-69
2022/03/23 06:19:24;;;;;;;67.70;38.95;;;8.00;99.90;;;;;;5013606;28;20036;-68
2022/03/23 06:21:49;;;;;;;61.78;38.38;;;8.20;99.90;;;;;;5011638;28;20076;-70
2022/03/23 06:24:15;;;;;;;60.70;38.92;;;8.50;99.90;;;;;;5013632;28;20038;-69
2022/03/23 06:26:41;;;;;;;60.92;40.58;;;8.70;99.90;;;;;;5014213;28;20038;-69
2022/03/23 06:29:06;;;;;;;63.03;39.03;;;9.00;99.90;;;;;;5014167;28;20030;-70
2022/03/23 06:31:32;;;;;;;60.75;38.83;;;9.30;99.90;;;;;;5013310;28;20088;-69
2022/03/23 06:33:59;;;;;;;55.75;35.38;;;9.60;99.90;;;;;;4995840;28;20059;-69
2022/03/23 06:36:25;;;;;;;51.83;34.60;;;10.10;99.90;;;;;;5014174;28;20037;-71
2022/03/23 06:38:51;;;;;;;49.85;32.33;;;10.10;99.90;;;;;;5014244;28;20049;-70
2022/03/23 06:41:17;;;;;;;49.55;32.35;;;10.30;99.90;;;;;;5013220;28;20049;-69
2022/03/23 06:43:43;;;;;;;44.42;30.55;;;10.40;99.90;;;;;;5013414;28;20064;-71
2022/03/23 06:46:08;;;;;;;48.60;30.80;;;10.60;99.90;;;;;;4996582;28;20459;-69
2022/03/23 06:48:34;;;;;;;44.92;30.13;;;10.70;99.90;;;;;;5013089;28;20431;-69
2022/03/23 06:51:00;;;;;;;46.78;31.30;;;10.80;99.90;;;;;;5013362;28;20041;-69
2022/03/23 06:53:25;;;;;;;43.50;30.90;;;11.00;99.90;;;;;;5013331;28;20050;-71
2022/03/23 06:55:51;;;;;;;49.85;30.35;;;11.20;99.90;;;;;;5013678;28;20034;-73
2022/03/23 06:58:17;;;;;;;43.67;28.98;;;11.20;99.90;;;;;;5013004;28;20509;-68
2022/03/23 07:00:42;;;;;;;44.10;28.65;;;11.00;99.90;;;;;;5006707;28;20113;-68
2022/03/23 07:03:08;;;;;;;41.22;28.85;;;10.60;99.90;;;;;;5005585;28;20030;-68
2022/03/23 07:05:35;;;;;;;42.85;27.45;;;10.60;99.90;;;;;;5009512;28;20093;-68
2022/03/23 07:10:45;;;;;;;43.38;26.80;;;10.70;99.90;;;;;;4996594;28;20046;-68
2022/03/23 07:13:14;;;;;;;39.65;28.27;;;10.90;99.90;;;;;;4998613;28;20072;-70
2022/03/23 07:15:40;;;;;;;40.97;27.65;;;10.90;99.90;;;;;;4986629;28;20046;-68
2022/03/23 07:18:06;;;;;;;43.83;27.83;;;10.90;99.90;;;;;;4997697;28;20101;-68
2022/03/23 07:20:31;;;;;;;41.13;27.42;;;10.90;99.90;;;;;;4984091;28;20038;-69
2022/03/23 07:22:57;;;;;;;45.83;28.15;;;10.90;99.90;;;;;;4999058;28;20034;-68
2022/03/23 07:25:23;;;;;;;49.00;28.98;;;10.90;99.90;;;;;;5003275;28;20109;-69
2022/03/23 07:27:48;;;;;;;53.55;28.52;;;10.90;99.90;;;;;;4997119;28;20384;-69
2022/03/23 07:30:14;;;;;;;42.47;26.45;;;11.00;99.90;;;;;;5015735;28;20077;-69
2022/03/23 07:32:40;;;;;;;44.88;27.48;;;11.10;99.90;;;;;;4999105;28;20451;-68
2022/03/23 07:35:07;;;;;;;37.63;25.10;;;11.10;99.90;;;;;;4998896;28;20064;-70
2022/03/23 07:37:33;;;;;;;40.20;24.52;;;11.20;99.90;;;;;;4996532;28;20154;-70
2022/03/23 07:39:59;;;;;;;36.60;25.63;;;11.30;99.90;;;;;;4979858;28;20117;-69
2022/03/23 07:42:25;;;;;;;34.25;25.27;;;11.40;99.90;;;;;;5002711;28;20080;-70
2022/03/23 07:44:51;;;;;;;39.63;26.15;;;11.50;99.90;;;;;;4999075;28;20487;-69
2022/03/23 07:47:16;;;;;;;36.25;26.20;;;11.60;99.90;;;;;;5016055;28;20048;-69
2022/03/23 07:49:42;;;;;;;35.67;24.52;;;11.80;99.90;;;;;;4999415;28;20135;-69
2022/03/23 07:52:09;;;;;;;36.05;25.15;;;12.00;99.90;;;;;;5014630;28;20050;-69
2022/03/23 07:54:35;;;;;;;33.85;24.70;;;11.90;99.90;;;;;;5016360;28;20125;-69
2022/03/23 07:57:02;;;;;;;37.72;24.35;;;12.00;99.90;;;;;;5016306;28;20348;-69
2022/03/23 07:59:28;;;;;;;37.25;25.40;;;12.10;99.90;;;;;;4998978;28;20076;-69
2022/03/23 08:01:54;;;;;;;34.08;24.73;;;12.20;99.90;;;;;;5015784;28;20073;-69
2022/03/23 08:04:20;;;;;;;33.70;24.50;;;12.30;99.90;;;;;;5016346;28;20145;-69
2022/03/23 08:06:45;;;;;;;38.90;26.13;;;12.40;99.90;;;;;;5016532;28;20335;-69
2022/03/23 08:09:11;;;;;;;33.75;24.42;;;12.50;99.90;;;;;;5015509;28;20099;-69
2022/03/23 08:11:37;;;;;;;36.20;23.75;;;12.60;99.90;;;;;;5015710;28;20057;-70
2022/03/23 08:14:03;;;;;;;35.78;24.75;;;12.80;99.90;;;;;;5016159;28;20525;-68
2022/03/23 08:16:29;;;;;;;35.83;24.38;;;13.00;99.90;;;;;;5016069;28;20037;-68
2022/03/23 08:18:55;;;;;;;39.88;25.73;;;13.00;99.90;;;;;;5015436;28;20037;-69
2022/03/23 08:21:22;;;;;;;35.20;24.85;;;13.10;99.90;;;;;;5016072;28;20054;-69
2022/03/23 08:23:49;;;;;;;35.97;24.13;;;13.20;99.90;;;;;;5015493;28;20123;-69
2022/03/23 08:26:16;;;;;;;36.35;25.88;;;13.20;99.40;;;;;;5016029;28;20116;-69
2022/03/23 08:28:43;;;;;;;34.47;23.85;;;13.40;99.50;;;;;;5007462;28;20093;-69
2022/03/23 08:31:10;;;;;;;33.95;23.90;;;13.50;99.00;;;;;;4996151;28;20038;-70
2022/03/23 08:33:36;;;;;;;31.02;23.48;;;13.70;98.00;;;;;;5010758;28;20060;-70
2022/03/23 08:36:04;;;;;;;32.50;22.73;;;13.80;98.10;;;;;;5015865;28;20479;-69
2022/03/23 08:38:30;;;;;;;34.85;23.70;;;13.90;96.80;;;;;;5015355;28;20034;-70
2022/03/23 08:40:56;;;;;;;32.20;22.70;;;14.00;95.50;;;;;;5015420;28;20049;-68
2022/03/23 08:43:22;;;;;;;35.83;23.23;;;14.10;95.80;;;;;;4997908;28;20052;-70
2022/03/23 08:45:48;;;;;;;29.25;23.73;;;14.20;95.80;;;;;;5015738;28;20125;-70
2022/03/23 08:48:13;;;;;;;33.03;23.77;;;14.40;95.70;;;;;;5014856;28;20053;-69
2022/03/23 08:50:42;;;;;;;29.45;23.13;;;14.50;95.40;;;;;;5015497;28;20049;-68
2022/03/23 08:53:08;;;;;;;33.60;23.60;;;14.60;93.50;;;;;;5015491;28;20044;-70
2022/03/23 08:55:33;;;;;;;32.72;24.35;;;14.70;93.40;;;;;;4997967;28;20046;-69
2022/03/23 08:57:59;;;;;;;32.10;23.70;;;14.70;93.20;;;;;;5015250;28;20455;-69
2022/03/23 09:00:26;;;;;;;36.25;22.60;;;14.70;91.90;;;;;;5015304;28;20403;-69
2022/03/23 09:02:52;;;;;;;31.48;22.75;;;14.80;92.20;;;;;;5014964;28;20100;-69
2022/03/23 09:05:19;;;;;;;31.50;23.65;;;14.90;91.20;;;;;;5014954;28;20050;-69
2022/03/23 09:07:45;;;;;;;32.00;24.45;;;15.00;91.80;;;;;;5015408;28;20045;-69
2022/03/23 09:10:13;;;;;;;29.48;22.10;;;14.90;91.20;;;;;;5015030;28;20053;-70
2022/03/23 09:12:43;;;;;;;32.80;23.52;;;15.00;90.80;;;;;;5008499;28;20056;-69
2022/03/23 09:15:11;;;;;;;30.42;23.25;;;15.10;90.50;;;;;;5014572;28;20058;-69
2022/03/23 09:17:37;;;;;;;31.35;23.00;;;15.10;90.90;;;;;;5014661;28;20041;-68
2022/03/23 09:20:06;;;;;;;33.05;22.75;;;15.20;90.70;;;;;;5015215;28;20046;-69
2022/03/23 09:22:35;;;;;;;33.15;22.55;;;15.40;90.60;;;;;;5014958;28;20369;-69
2022/03/23 09:25:06;;;;;;;30.02;23.00;;;15.50;89.90;;;;;;5014935;28;20060;-69
2022/03/23 09:27:37;;;;;;;31.60;22.05;;;15.60;88.10;;;;;;4996320;28;20657;-69
2022/03/23 09:30:05;;;;;;;29.63;22.48;;;15.60;89.10;;;;;;4995660;28;20105;-70
2022/03/23 09:32:31;;;;;;;29.02;21.77;;;15.80;88.90;;;;;;4995737;28;20034;-69
2022/03/23 09:34:58;;;;;;;28.15;20.77;;;15.90;87.90;;;;;;5012727;28;20050;-69
2022/03/23 09:40:08;;;;;;;29.35;21.35;;;16.10;85.40;;;;;;5014532;28;20375;-69
2022/03/23 09:42:35;;;;;;;27.98;21.88;;;16.20;85.40;;;;;;4993611;28;20041;-69
2022/03/23 09:45:02;;;;;;;28.02;20.63;;;16.30;83.90;;;;;;5013029;28;20053;-69
2022/03/23 09:47:28;;;;;;;26.55;19.73;;;16.40;83.80;;;;;;5013860;28;20108;-69
2022/03/23 09:49:53;;;;;;;28.20;21.45;;;16.50;82.30;;;;;;5014115;28;20259;-69
2022/03/23 09:52:19;;;;;;;26.13;19.55;;;16.50;82.50;;;;;;4997060;28;20045;-69
2022/03/23 09:54:45;;;;;;;25.48;19.45;;;16.60;80.40;;;;;;5014263;28;20041;-69
2022/03/23 09:57:13;;;;;;;26.60;19.75;;;16.70;79.90;;;;;;5013984;28;20053;-69
2022/03/23 09:59:39;;;;;;;22.73;19.05;;;16.80;77.60;;;;;;5014739;28;20053;-71
2022/03/23 10:02:05;;;;;;;22.25;17.85;;;16.80;77.20;;;;;;5013263;28;20125;-71
2022/03/23 10:04:49;;;;;;;22.75;18.60;;;16.80;75.00;;;;;;5014369;28;20188;-70
2022/03/23 10:07:31;;;;;;;21.98;17.48;;;16.90;73.30;;;;;;4996608;28;20045;-69
2022/03/23 10:10:34;;;;;;;23.02;16.92;;;17.00;70.60;;;;;;4996652;28;20030;-69
2022/03/23 10:13:09;;;;;;;21.55;16.50;;;17.10;68.00;;;;;;5006587;28;20404;-70
2022/03/23 10:16:00;;;;;;;21.98;16.40;;;17.10;68.30;;;;;;5014164;28;20057;-70
2022/03/23 10:18:50;;;;;;;23.35;16.40;;;17.20;67.10;;;;;;5013552;28;20407;-70
2022/03/23 10:21:17;;;;;;;19.13;16.05;;;17.30;64.40;;;;;;5014079;28;20370;-70
2022/03/23 10:24:11;;;;;;;19.25;15.73;;;17.40;65.20;;;;;;5013988;28;20045;-69
2022/03/23 10:26:38;;;;;;;18.00;15.00;;;17.40;61.20;;;;;;5013943;28;20038;-70
2022/03/23 10:29:10;;;;;;;21.98;15.80;;;17.40;62.50;;;;;;5002369;28;20046;-70
2022/03/23 10:31:36;;;;;;;19.95;15.60;;;17.40;59.90;;;;;;4994471;28;20042;-69
2022/03/23 10:34:08;;;;;;;18.13;14.65;;;17.60;61.10;;;;;;4994302;28;20042;-70
2022/03/23 10:36:39;;;;;;;19.73;15.35;;;17.60;60.50;;;;;;4994156;28;20177;-70
2022/03/23 10:39:10;;;;;;;21.33;15.70;;;17.70;60.30;;;;;;4977017;28;20446;-70
2022/03/23 10:41:36;;;;;;;19.92;15.75;;;17.70;60.00;;;;;;4998289;28;20038;-70
2022/03/23 10:44:02;;;;;;;20.98;15.60;;;17.70;59.90;;;;;;5008732;28;20038;-70
2022/03/23 10:46:27;;;;;;;19.80;15.02;;;17.80;59.30;;;;;;5017861;28;20192;-70
2022/03/23 10:49:02;;;;;;;19.02;15.75;;;17.80;57.10;;;;;;5017571;28;20533;-70
2022/03/23 10:51:33;;;;;;;20.08;14.40;;;17.80;56.80;;;;;;5017822;28;20052;-69
2022/03/23 10:53:59;;;;;;;19.05;14.70;;;17.90;57.00;;;;;;5017510;28;20109;-70
2022/03/23 10:56:38;;;;;;;19.25;14.73;;;18.00;56.40;;;;;;5017398;28;20042;-70
2022/03/23 10:59:15;;;;;;;18.13;14.30;;;18.10;56.30;;;;;;5017325;28;20061;-69
2022/03/23 11:02:00;;;;;;;20.60;16.13;;;18.20;56.10;;;;;;5017413;28;20147;-71
2022/03/23 11:04:31;;;;;;;18.63;15.13;;;18.10;57.40;;;;;;5011688;28;20355;-69
2022/03/23 11:06:58;;;;;;;20.05;14.52;;;18.20;57.20;;;;;;5004567;28;20112;-69
2022/03/23 11:18:11;;;;;;;22.63;14.85;;;18.40;55.70;;;;;;4995179;28;20395;-69
2022/03/23 11:20:43;;;;;;;22.10;15.30;;;18.30;55.70;;;;;;5003786;28;20113;-70
2022/03/23 11:23:24;;;;;;;19.77;15.13;;;18.40;56.40;;;;;;5008197;28;20060;-69
2022/03/23 11:25:55;;;;;;;20.58;14.85;;;18.40;56.00;;;;;;5006587;28;20467;-69
2022/03/23 11:28:22;;;;;;;28.80;15.45;;;18.40;56.50;;;;;;4999168;28;20129;-70
2022/03/23 11:30:49;;;;;;;19.73;13.93;;;18.50;56.00;;;;;;4997466;28;20108;-69
2022/03/23 11:33:17;;;;;;;21.02;13.73;;;18.60;54.80;;;;;;5000622;28;20044;-69
2022/03/23 11:35:49;;;;;;;20.08;14.57;;;18.70;54.50;;;;;;4982909;28;20045;-69
2022/03/23 11:38:23;;;;;;;24.05;14.57;;;18.80;54.60;;;;;;5013254;28;20477;-69
2022/03/23 11:40:50;;;;;;;23.77;11.63;;;18.60;53.50;;;;;;5016381;28;20455;-69
2022/03/23 11:43:18;;;;;;;18.48;11.57;;;18.60;52.90;;;;;;5015827;28;20526;-69
2022/03/23 11:45:46;;;;;;;23.90;12.23;;;18.60;53.70;;;;;;5016607;28;20123;-69
2022/03/23 11:48:24;;;;;;;16.17;11.13;;;18.40;52.70;;;;;;5015892;28;20049;-72
2022/03/23 11:51:15;;;;;;;20.45;11.77;;;18.60;52.90;;;;;;5014946;28;20049;-69
2022/03/23 11:54:06;;;;;;;16.27;11.30;;;18.70;53.50;;;;;;5016325;28;20034;-70
2022/03/23 11:56:56;;;;;;;20.52;13.23;;;18.80;53.80;;;;;;5016643;28;20045;-70
2022/03/23 11:59:29;;;;;;;18.73;11.88;;;19.00;52.50;;;;;;5016537;28;20038;-70
2022/03/23 12:01:59;;;;;;;16.47;11.60;;;19.00;53.70;;;;;;5016698;28;20076;-70
2022/03/23 12:04:26;;;;;;;16.52;12.20;;;19.00;53.80;;;;;;5015163;28;20482;-70
2022/03/23 12:07:06;;;;;;;20.55;12.50;;;19.00;53.20;;;;;;5015976;28;20034;-70
2022/03/23 12:09:37;;;;;;;16.35;12.38;;;19.00;52.80;;;;;;5016565;28;20081;-70
2022/03/23 12:12:11;;;;;;;21.27;12.63;;;18.90;53.40;;;;;;5015591;28;20066;-71
2022/03/23 12:14:38;;;;;;;19.02;12.85;;;19.00;52.90;;;;;;4996916;28;20050;-69
2022/03/23 12:17:04;;;;;;;21.02;12.30;;;19.00;52.60;;;;;;4996210;28;20714;-71
2022/03/23 12:19:32;;;;;;;19.52;12.38;;;19.00;53.60;;;;;;4996791;28;20042;-69
2022/03/23 12:22:06;;;;;;;20.88;12.50;;;19.10;52.40;;;;;;5006870;28;20483;-69
2022/03/23 12:24:54;;;;;;;22.08;12.40;;;19.20;52.90;;;;;;5015835;28;20080;-70
2022/03/23 12:27:41;;;;;;;18.80;12.20;;;19.20;52.50;;;;;;5015701;28;20041;-69
2022/03/23 12:30:15;;;;;;;23.33;12.07;;;19.30;53.20;;;;;;4998507;28;20037;-70
2022/03/23 12:32:41;;;;;;;17.95;10.02;;;19.10;53.30;;;;;;5014787;28;20033;-69
2022/03/23 12:35:08;;;;;;;22.10;11.00;;;19.10;52.70;;;;;;5015544;28;20371;-69
2022/03/23 12:37:39;;;;;;;21.10;11.38;;;19.10;52.50;;;;;;5014805;28;20064;-70
2022/03/23 12:40:13;;;;;;;18.02;10.48;;;19.10;52.70;;;;;;4995031;28;20044;-69
2022/03/23 12:42:42;;;;;;;;;;;19.20;52.80;;;;;;5014902;28;20399;-68
2022/03/23 12:45:12;;;;;;;20.17;11.98;;;19.20;52.80;;;;;;4997929;28;19932;-69
2022/03/23 12:47:53;;;;;;;26.40;11.15;;;19.30;52.60;;;;;;5015421;28;20044;-69
2022/03/23 12:59:19;;;;;;;21.48;10.88;;;19.00;52.40;;;;;;4995695;28;20042;-71
2022/03/23 13:01:45;;;;;;;20.45;7.07;;;18.90;52.90;;;;;;4977607;28;20050;-69
2022/03/23 13:04:47;;;;;;;17.40;8.55;;;19.20;50.40;;;;;;4995375;28;20049;-70
2022/03/23 13:07:28;;;;;;;21.48;7.85;;;19.30;50.90;;;;;;4997688;28;20337;-71